Bob Baker Memorial Airport Kiana US
ICAO: PAIK
IATA:
Category: Medium
Scheduled Services:

Elevation: 166 ft
TransAlt. 18000 ft.

Airport Communications:
ANCHORAGE CNTR:119.2
CTAF:122.7

PAIK Zoom In..

If you have problems with the map follow the link
https://www.worldairports.se/pages/airport.php?
ICAO=PAIK

Runways:

(A) RW 06 length 3400 ft width 100 ft
---- / hdg 64

(B) RW 24 length 3400 ft width 100 ft
---- / hdg 244

Location; PAIK
Day. 17 / Time. 20.56 Zulu
* Altimeter: 30.08
* Temperature: -13° c. -8.6°f.
* Wind from: 060° Speed 05 kn.
Dewpoint: -19° c.
Visibility: 10 Statute Miles.
Clouds: Clear (automated report).

PAIK 172056Z AUTO 06005KT 10SM CLR M13/M19 A3008 RMK AO2 SLP191 T11331194 53001 FZRANO


Wind From 060°
Speed 05 kn.

 
 
jpsmedia worldairports.se 2020   terms of use